Time;durP1;ratioP1;P1;durP2;ratioP2;P2;SDS_P1;SDS_P2;PMS_P1;PMS_P2;Temp;Humidity;BMP_temperature;BMP_pressure;BME280_temperature;BME280_humidity;BME280_pressure;Samples;Min_cycle;Max_cycle;Signal;HPM_P1;HPM_P2
2021/05/08 00:01:39;;;;;;;;;;;;;;;20.55;30.59;100218.25;4429803;32;19949;-56
2021/05/08 00:04:05;;;;;;;;;;;;;;;20.48;30.61;100219.94;4432706;32;19949;-57
2021/05/08 00:06:33;;;;;;;;;;;;;;;20.45;30.75;100214.63;4421120;32;19964;-57
2021/05/08 00:08:59;;;;;;;;;;;;;;;20.39;30.42;100225.16;4416630;32;20025;-57
2021/05/08 00:11:24;;;;;;;;;;;;;;;20.45;30.23;100214.63;4427271;32;19973;-55
2021/05/08 00:13:50;;;;;;;;;;;;;;;20.36;30.70;100212.78;4431703;32;19950;-57
2021/05/08 00:16:16;;;;;;;;;;;;;;;20.39;30.54;100219.84;4423028;32;19950;-56
2021/05/08 00:18:42;;;;;;;;;;;;;;;20.44;30.39;100223.44;4416610;32;19958;-57
2021/05/08 00:21:08;;;;;;;;;;;;;;;20.42;30.43;100227.81;4424551;32;20009;-57
2021/05/08 00:23:34;;;;;;;;;;;;;;;20.54;30.22;100223.50;4418615;32;20005;-56
2021/05/08 00:26:02;;;;;;;;;;;;;;;20.40;30.66;100221.62;4425881;32;20013;-56
2021/05/08 00:28:28;;;;;;;;;;;;;;;20.34;30.27;100224.22;4415830;32;19982;-56
2021/05/08 00:30:54;;;;;;;;;;;;;;;20.38;30.15;100228.66;4421379;32;19950;-55
2021/05/08 00:33:20;;;;;;;;;;;;;;;20.45;30.16;100211.09;4431712;32;19985;-57
2021/05/08 00:35:46;;;;;;;;;;;;;;;20.47;30.27;100220.81;4428347;32;19955;-57
2021/05/08 00:38:12;;;;;;;;;;;;;;;20.28;30.55;100221.50;4416522;32;19977;-57
2021/05/08 00:40:38;;;;;;;;;;;;;;;20.36;30.53;100219.84;4418426;32;19991;-57
2021/05/08 00:43:04;;;;;;;;;;;;;;;20.37;30.68;100218.97;4430806;32;19950;-57
2021/05/08 00:45:30;;;;;;;;;;;;;;;20.20;30.72;100221.44;4430435;32;19950;-57
2021/05/08 00:47:55;;;;;;;;;;;;;;;20.35;30.38;100220.72;4417253;32;19968;-57
2021/05/08 00:50:21;;;;;;;;;;;;;;;20.36;30.42;100215.41;4415093;32;20602;-57
2021/05/08 00:52:47;;;;;;;;;;;;;;;20.43;30.13;100208.41;4431232;32;19983;-57
2021/05/08 00:55:13;;;;;;;;;;;;;;;20.45;30.18;100204.06;4431858;32;20363;-54
2021/05/08 00:57:39;;;;;;;;;;;;;;;20.32;30.49;100203.03;4417996;32;19994;-53
2021/05/08 01:00:05;;;;;;;;;;;;;;;20.31;30.50;100205.66;4416103;32;19988;-57
2021/05/08 01:02:31;;;;;;;;;;;;;;;20.31;30.06;100209.19;4428784;32;19953;-57
2021/05/08 01:04:57;;;;;;;;;;;;;;;20.31;30.35;100195.09;4432105;32;19950;-57
2021/05/08 01:07:23;;;;;;;;;;;;;;;20.20;30.30;100195.88;4432780;32;20041;-57
2021/05/08 01:09:49;;;;;;;;;;;;;;;20.26;30.25;100189.78;4433505;32;20426;-57
2021/05/08 01:12:15;;;;;;;;;;;;;;;20.20;30.54;100190.59;4424798;32;19970;-57
2021/05/08 01:14:40;;;;;;;;;;;;;;;20.38;30.43;100189.00;4419276;32;20306;-54
2021/05/08 01:17:06;;;;;;;;;;;;;;;20.27;30.53;100188.91;4427237;32;19954;-56
2021/05/08 01:19:32;;;;;;;;;;;;;;;20.25;30.37;100189.75;4434737;32;20538;-57
2021/05/08 01:21:58;;;;;;;;;;;;;;;20.33;30.35;100191.59;4427612;32;19956;-54
2021/05/08 01:24:24;;;;;;;;;;;;;;;20.29;30.08;100191.53;4419186;32;19969;-57
2021/05/08 01:26:50;;;;;;;;;;;;;;;20.35;30.10;100191.62;4423993;32;19987;-57
2021/05/08 01:29:16;;;;;;;;;;;;;;;20.33;29.92;100190.72;4433049;32;19995;-55
2021/05/08 01:31:41;;;;;;;;;;;;;;;20.32;29.98;100188.94;4430686;32;19968;-56
2021/05/08 01:34:08;;;;;;;;;;;;;;;20.18;30.21;100192.31;4418741;32;19946;-55
2021/05/08 01:36:34;;;;;;;;;;;;;;;20.23;30.17;100189.72;4421838;32;19954;-55
2021/05/08 01:39:00;;;;;;;;;;;;;;;20.26;30.25;100186.22;4434173;32;19990;-58
2021/05/08 01:41:26;;;;;;;;;;;;;;;20.19;30.36;100194.13;4433357;32;19958;-56
2021/05/08 01:43:52;;;;;;;;;;;;;;;20.28;30.36;100187.13;4418972;32;19993;-57
2021/05/08 01:46:18;;;;;;;;;;;;;;;20.33;30.18;100183.66;4418510;32;19950;-57
2021/05/08 01:48:43;;;;;;;;;;;;;;;20.26;30.17;100176.56;4433675;32;19954;-57
2021/05/08 01:51:09;;;;;;;;;;;;;;;20.10;30.61;100180.78;4434407;32;20021;-57
2021/05/08 01:53:35;;;;;;;;;;;;;;;20.22;30.19;100172.09;4421110;32;19954;-57
2021/05/08 01:56:01;;;;;;;;;;;;;;;20.22;30.16;100178.28;4418335;32;19950;-57
2021/05/08 01:58:27;;;;;;;;;;;;;;;20.16;30.35;100178.19;4430087;32;19964;-57
2021/05/08 02:00:53;;;;;;;;;;;;;;;20.24;29.98;100174.75;4433781;32;19992;-53
2021/05/08 02:03:19;;;;;;;;;;;;;;;20.18;30.52;100181.75;4433443;32;19960;-55
2021/05/08 02:05:45;;;;;;;;;;;;;;;20.18;30.31;100173.81;4434699;32;20260;-57
2021/05/08 02:08:11;;;;;;;;;;;;;;;20.24;29.96;100172.13;4432410;32;19968;-57
2021/05/08 02:10:36;;;;;;;;;;;;;;;20.18;30.27;100171.16;4432414;32;20266;-57
2021/05/08 02:13:02;;;;;;;;;;;;;;;20.11;30.29;100165.81;4422196;32;19939;-53
2021/05/08 02:15:28;;;;;;;;;;;;;;;20.08;30.47;100164.03;4416991;32;19969;-56
2021/05/08 02:17:54;;;;;;;;;;;;;;;20.08;30.21;100158.75;4417750;32;19976;-56
2021/05/08 02:20:25;;;;;;;;;;;;;;;20.18;30.31;100167.66;4431316;32;19986;-57
2021/05/08 02:22:51;;;;;;;;;;;;;;;20.13;30.19;100161.44;4427210;32;19942;-56
2021/05/08 02:25:17;;;;;;;;;;;;;;;20.09;30.37;100163.16;4416966;32;20409;-54
2021/05/08 02:27:43;;;;;;;;;;;;;;;20.10;30.40;100162.28;4421130;32;19964;-57
2021/05/08 02:30:09;;;;;;;;;;;;;;;20.07;30.45;100172.84;4432310;32;20001;-55
2021/05/08 02:32:35;;;;;;;;;;;;;;;20.02;30.26;100166.59;4429625;32;19953;-55
2021/05/08 02:35:01;;;;;;;;;;;;;;;20.15;30.00;100163.22;4417823;32;19955;-56
2021/05/08 02:37:27;;;;;;;;;;;;;;;20.02;30.23;100174.53;4418379;32;19957;-57
2021/05/08 02:39:53;;;;;;;;;;;;;;;20.08;30.20;100169.31;4432579;32;19949;-58
2021/05/08 02:42:18;;;;;;;;;;;;;;;20.06;30.37;100171.03;4430844;32;19962;-57
2021/05/08 02:44:44;;;;;;;;;;;;;;;20.08;30.28;100166.69;4417816;32;19958;-57
2021/05/08 02:47:19;;;;;;;;;;;;;;;20.04;30.13;100175.44;4418099;32;20530;-57
2021/05/08 02:49:45;;;;;;;;;;;;;;;20.01;30.32;100173.66;4431722;32;20002;-57
2021/05/08 02:52:11;;;;;;;;;;;;;;;20.03;30.42;100173.66;4431255;32;20343;-57
2021/05/08 02:54:37;;;;;;;;;;;;;;;20.01;30.36;100172.75;4419339;32;19954;-57
2021/05/08 02:57:03;;;;;;;;;;;;;;;20.04;30.29;100172.78;4415761;32;20336;-57
2021/05/08 02:59:29;;;;;;;;;;;;;;;20.06;30.34;100176.31;4429880;32;19950;-56
2021/05/08 03:01:55;;;;;;;;;;;;;;;20.05;30.24;100169.28;4433042;32;19958;-57
2021/05/08 03:04:20;;;;;;;;;;;;;;;20.02;30.34;100171.88;4421868;32;19951;-56
2021/05/08 03:06:46;;;;;;;;;;;;;;;19.95;30.39;100173.59;4415985;32;20335;-57
2021/05/08 03:09:12;;;;;;;;;;;;;;;20.01;30.42;100172.75;4426646;32;19938;-55
2021/05/08 03:11:38;;;;;;;;;;;;;;;19.96;30.40;100163.91;4432361;32;19976;-57
2021/05/08 03:14:04;;;;;;;;;;;;;;;19.94;30.44;100156.84;4424267;32;20031;-55
2021/05/08 03:16:30;;;;;;;;;;;;;;;19.96;30.38;100159.50;4417432;32;19950;-56
2021/05/08 03:18:56;;;;;;;;;;;;;;;20.00;30.37;100160.41;4424600;32;20006;-57
2021/05/08 03:21:22;;;;;;;;;;;;;;;19.96;30.37;100155.97;4432716;32;19958;-57
2021/05/08 03:23:48;;;;;;;;;;;;;;;19.92;30.26;100163.84;4427152;32;20148;-56
2021/05/08 03:26:13;;;;;;;;;;;;;;;19.97;30.44;100163.03;4416085;32;19954;-57
2021/05/08 03:28:40;;;;;;;;;;;;;;;19.96;30.40;100161.28;4418984;32;20433;-57
2021/05/08 03:31:05;;;;;;;;;;;;;;;19.91;30.42;100164.69;4432422;32;19989;-57
2021/05/08 03:33:31;;;;;;;;;;;;;;;19.94;30.28;100162.13;4429516;32;20345;-57
2021/05/08 03:35:57;;;;;;;;;;;;;;;19.94;30.27;100156.84;4417871;32;19946;-57
2021/05/08 03:38:23;;;;;;;;;;;;;;;19.93;30.30;100165.63;4416100;32;19950;-57
2021/05/08 03:40:49;;;;;;;;;;;;;;;19.82;30.45;100167.25;4431342;32;19993;-55
2021/05/08 03:43:15;;;;;;;;;;;;;;;19.80;30.49;100158.41;4430394;32;20270;-57
2021/05/08 03:45:41;;;;;;;;;;;;;;;19.83;30.49;100157.56;4416028;32;19965;-56
2021/05/08 03:48:07;;;;;;;;;;;;;;;19.82;30.56;100169.00;4416856;32;20057;-56
2021/05/08 03:50:33;;;;;;;;;;;;;;;19.83;30.39;100162.84;4430833;32;19964;-57
2021/05/08 03:52:59;;;;;;;;;;;;;;;19.85;30.42;100167.28;4432904;32;19991;-54
2021/05/08 03:55:25;;;;;;;;;;;;;;;19.79;30.50;100161.91;4418916;32;19958;-57
2021/05/08 03:57:51;;;;;;;;;;;;;;;19.85;30.42;100166.37;4416054;32;20338;-57
2021/05/08 04:00:16;;;;;;;;;;;;;;;19.82;30.28;100161.97;4424846;32;19949;-55
2021/05/08 04:02:42;;;;;;;;;;;;;;;19.79;30.55;100167.19;4430008;32;20001;-55
2021/05/08 04:05:08;;;;;;;;;;;;;;;19.77;30.62;100161.00;4419950;32;19990;-56
2021/05/08 04:07:34;;;;;;;;;;;;;;;19.75;30.59;100166.28;4415983;32;20003;-56
2021/05/08 04:10:00;;;;;;;;;;;;;;;19.69;30.58;100163.56;4424428;32;19965;-57
2021/05/08 04:12:26;;;;;;;;;;;;;;;19.74;30.47;100163.63;4429905;32;20010;-56
2021/05/08 04:14:52;;;;;;;;;;;;;;;19.75;30.43;100160.13;4425542;32;19946;-57
2021/05/08 04:17:18;;;;;;;;;;;;;;;19.70;30.49;100162.69;4415514;32;20350;-57
2021/05/08 04:19:44;;;;;;;;;;;;;;;19.66;30.62;100167.06;4422195;32;19967;-57
2021/05/08 04:22:10;;;;;;;;;;;;;;;19.70;30.52;100161.84;4431806;32;20095;-57
2021/05/08 04:24:36;;;;;;;;;;;;;;;19.74;30.50;100155.72;4427156;32;19968;-57
2021/05/08 04:27:02;;;;;;;;;;;;;;;19.71;30.52;100145.09;4415729;32;20387;-56
2021/05/08 04:29:28;;;;;;;;;;;;;;;19.73;30.48;100151.28;4417429;32;20539;-57
2021/05/08 04:31:54;;;;;;;;;;;;;;;19.72;30.49;100165.38;4431746;32;20220;-57
2021/05/08 04:34:20;;;;;;;;;;;;;;;19.73;30.56;100161.88;4430487;32;19993;-57
2021/05/08 04:36:46;;;;;;;;;;;;;;;19.69;30.44;100157.38;4417202;32;20298;-55
2021/05/08 04:39:12;;;;;;;;;;;;;;;19.73;30.54;100161.88;4414064;32;19946;-57
2021/05/08 04:41:37;;;;;;;;;;;;;;;19.69;30.45;100160.94;4430845;32;20017;-57
2021/05/08 04:44:03;;;;;;;;;;;;;;;19.70;30.54;100161.84;4432826;32;20001;-56
2021/05/08 04:46:29;;;;;;;;;;;;;;;19.74;30.43;100164.50;4421113;32;20019;-57
2021/05/08 04:48:55;;;;;;;;;;;;;;;19.76;30.40;100167.16;4419568;32;19965;-55
2021/05/08 04:51:21;;;;;;;;;;;;;;;19.68;30.51;100167.09;4431915;32;20279;-56
2021/05/08 04:53:50;;;;;;;;;;;;;;;19.64;30.69;100168.78;4434635;32;19982;-56
2021/05/08 04:56:16;;;;;;;;;;;;;;;19.61;30.62;100171.41;4422619;32;19955;-57
2021/05/08 04:58:43;;;;;;;;;;;;;;;19.56;30.78;100165.16;4419503;32;20632;-56
2021/05/08 05:01:09;;;;;;;;;;;;;;;19.59;30.69;100170.50;4429375;32;19960;-55
2021/05/08 05:03:35;;;;;;;;;;;;;;;19.58;30.79;100173.13;4435580;32;20282;-55
2021/05/08 05:06:01;;;;;;;;;;;;;;;19.63;30.56;100177.59;4426649;32;19946;-56
2021/05/08 05:08:27;;;;;;;;;;;;;;;19.63;30.53;100176.69;4418265;32;19954;-56
2021/05/08 05:10:54;;;;;;;;;;;;;;;19.70;30.57;100178.56;4426701;32;19988;-55
2021/05/08 05:13:20;;;;;;;;;;;;;;;19.72;30.56;100173.31;4434295;32;19997;-53
2021/05/08 05:15:46;;;;;;;;;;;;;;;19.76;30.42;100177.75;4428574;32;19957;-55
2021/05/08 05:18:12;;;;;;;;;;;;;;;19.77;30.38;100179.50;4419303;32;20291;-57
2021/05/08 05:20:38;;;;;;;;;;;;;;;19.74;30.47;100172.44;4423915;32;19964;-56
2021/05/08 05:23:04;;;;;;;;;;;;;;;19.71;30.45;100182.09;4424988;32;19968;-56
2021/05/08 05:25:30;;;;;;;;;;;;;;;19.71;30.60;100179.47;4426964;32;19958;-57
2021/05/08 05:27:56;;;;;;;;;;;;;;;19.73;30.57;100178.59;4428832;32;19986;-56
2021/05/08 05:30:22;;;;;;;;;;;;;;;19.67;30.53;100182.03;4427422;32;20364;-57
2021/05/08 05:32:48;;;;;;;;;;;;;;;19.67;30.63;100189.97;4425285;32;19971;-56
2021/05/08 05:35:14;;;;;;;;;;;;;;;19.70;30.50;100190.91;4427851;32;20368;-54
2021/05/08 05:37:40;;;;;;;;;;;;;;;19.79;30.48;100178.66;4427714;32;19962;-54
2021/05/08 05:40:06;;;;;;;;;;;;;;;19.74;30.57;100175.06;4425840;32;19946;-57
2021/05/08 05:42:32;;;;;;;;;;;;;;;19.75;30.45;100175.97;4425944;32;19972;-55
2021/05/08 05:44:58;;;;;;;;;;;;;;;19.79;30.51;100183.06;4412922;32;19968;-56
2021/05/08 05:47:26;;;;;;;;;;;;;;;19.78;30.53;100186.56;4427619;32;19956;-57
2021/05/08 05:49:52;;;;;;;;;;;;;;;19.83;30.61;100189.25;4424199;32;19942;-57
2021/05/08 05:52:18;;;;;;;;;;;;;;;19.77;30.46;100184.78;4426335;32;20029;-56
2021/05/08 05:54:44;;;;;;;;;;;;;;;19.78;30.64;100186.56;4426938;32;19954;-56
2021/05/08 05:57:10;;;;;;;;;;;;;;;19.69;30.76;100197.00;4423256;32;21387;-57
2021/05/08 05:59:36;;;;;;;;;;;;;;;19.71;30.64;100196.19;4426603;32;19958;-54
2021/05/08 06:02:02;;;;;;;;;;;;;;;19.65;30.84;100186.41;4425649;32;19954;-56
2021/05/08 06:04:28;;;;;;;;;;;;;;;19.82;30.64;100191.03;4425356;32;19986;-54
2021/05/08 06:06:54;;;;;;;;;;;;;;;19.79;30.60;100191.88;4423558;32;19950;-56
2021/05/08 06:09:19;;;;;;;;;;;;;;;19.74;30.77;100192.69;4418984;32;19989;-56
2021/05/08 06:11:45;;;;;;;;;;;;;;;19.73;30.79;100194.44;4425311;32;20396;-57
2021/05/08 06:14:11;;;;;;;;;;;;;;;19.78;30.83;100187.47;4419025;32;19961;-57
2021/05/08 06:16:37;;;;;;;;;;;;;;;19.77;30.76;100190.06;4425176;32;19996;-57
2021/05/08 06:19:03;;;;;;;;;;;;;;;19.76;30.62;100185.66;4432058;32;19953;-55
2021/05/08 06:21:29;;;;;;;;;;;;;;;19.76;30.80;100183.03;4430651;32;20275;-55
2021/05/08 06:23:55;;;;;;;;;;;;;;;19.74;30.84;100180.34;4418145;32;19950;-56
2021/05/08 06:26:21;;;;;;;;;;;;;;;19.82;30.77;100169.91;4421299;32;19970;-57
2021/05/08 06:28:47;;;;;;;;;;;;;;;19.81;30.74;100176.03;4424097;32;19987;-54
2021/05/08 06:31:12;;;;;;;;;;;;;;;19.80;30.68;100168.97;4424732;32;19991;-56
2021/05/08 06:33:39;;;;;;;;;;;;;;;19.80;30.79;100176.91;4427090;32;19934;-57
2021/05/08 06:36:04;;;;;;;;;;;;;;;19.78;30.76;100187.47;4425859;32;20029;-57
2021/05/08 06:38:30;;;;;;;;;;;;;;;19.78;30.83;100176.91;4431901;32;19954;-57
2021/05/08 06:40:56;;;;;;;;;;;;;;;19.74;30.93;100175.06;4432622;32;19945;-56
2021/05/08 06:43:22;;;;;;;;;;;;;;;19.80;30.87;100179.53;4420370;32;20266;-56
2021/05/08 06:45:48;;;;;;;;;;;;;;;19.74;31.03;100174.19;4417264;32;19961;-56
2021/05/08 06:48:15;;;;;;;;;;;;;;;19.79;30.89;100172.47;4429006;32;19973;-56
2021/05/08 06:50:41;;;;;;;;;;;;;;;19.80;30.78;100168.97;4432785;32;19976;-55
2021/05/08 06:53:07;;;;;;;;;;;;;;;19.79;30.94;100167.19;4422755;32;19946;-55
2021/05/08 06:55:33;;;;;;;;;;;;;;;19.80;30.91;100172.50;4418702;32;20002;-56
2021/05/08 06:57:59;;;;;;;;;;;;;;;19.79;30.98;100172.47;4426932;32;19956;-56
2021/05/08 07:00:25;;;;;;;;;;;;;;;19.83;30.89;100171.66;4432114;32;20303;-56
2021/05/08 07:02:51;;;;;;;;;;;;;;;19.93;30.68;100173.56;4425833;32;19987;-56
2021/05/08 07:05:17;;;;;;;;;;;;;;;19.89;30.79;100174.38;4417502;32;19989;-54
2021/05/08 07:07:43;;;;;;;;;;;;;;;19.90;30.81;100170.84;4421125;32;20045;-55
2021/05/08 07:10:09;;;;;;;;;;;;;;;19.93;30.81;100168.28;4420294;32;19938;-57
2021/05/08 07:12:34;;;;;;;;;;;;;;;19.96;30.65;100161.28;4421915;32;20288;-57
2021/05/08 07:15:00;;;;;;;;;;;;;;;19.98;30.71;100162.16;4432209;32;19956;-56
2021/05/08 07:17:26;;;;;;;;;;;;;;;19.99;30.73;100158.66;4424635;32;19945;-56
2021/05/08 07:19:52;;;;;;;;;;;;;;;19.94;30.83;100166.53;4418834;32;19950;-56
2021/05/08 07:22:18;;;;;;;;;;;;;;;19.90;30.91;100170.84;4417328;32;19990;-56
2021/05/08 07:24:44;;;;;;;;;;;;;;;19.85;31.08;100180.50;4429724;32;19973;-56
2021/05/08 07:27:10;;;;;;;;;;;;;;;19.87;31.04;100185.78;4429135;32;19977;-56
2021/05/08 07:29:36;;;;;;;;;;;;;;;19.89;30.92;100184.06;4420333;32;19969;-55
2021/05/08 07:32:02;;;;;;;;;;;;;;;19.88;30.97;100187.56;4409260;32;19958;-53
2021/05/08 07:34:28;;;;;;;;;;;;;;;19.74;30.29;100176.84;4424581;32;20406;-52
2021/05/08 07:36:54;;;;;;;;;;;;;;;19.51;31.57;100182.72;4424797;32;19945;-53
2021/05/08 07:39:20;;;;;;;;;;;;;;;19.65;31.37;100177.62;4416242;32;20342;-50
2021/05/08 07:41:46;;;;;;;;;;;;;;;19.71;31.25;100179.47;4415715;32;20089;-51
2021/05/08 07:44:12;;;;;;;;;;;;;;;19.78;31.08;100179.53;4426219;32;19964;-54
2021/05/08 07:46:38;;;;;;;;;;;;;;;19.86;30.95;100179.63;4431135;32;20447;-50
2021/05/08 07:49:03;;;;;;;;;;;;;;;19.90;30.89;100168.22;4419107;32;19953;-52
2021/05/08 07:51:29;;;;;;;;;;;;;;;19.97;30.85;100173.59;4414981;32;19950;-52
2021/05/08 07:53:55;;;;;;;;;;;;;;;20.00;30.83;100173.63;4425119;32;19954;-54
2021/05/08 07:56:24;;;;;;;;;;;;;;;19.99;30.89;100169.22;4431467;32;19958;-51
2021/05/08 07:58:50;;;;;;;;;;;;;;;19.98;30.95;100163.03;4421951;32;20012;-53
2021/05/08 08:01:16;;;;;;;;;;;;;;;20.02;30.96;100156.03;4415061;32;20346;-52
2021/05/08 08:03:42;;;;;;;;;;;;;;;20.00;31.01;100157.78;4423551;32;19950;-54
2021/05/08 08:06:08;;;;;;;;;;;;;;;20.04;31.00;100154.28;4430574;32;20319;-52
2021/05/08 08:08:34;;;;;;;;;;;;;;;20.02;31.04;100148.09;4425316;32;19950;-54
2021/05/08 08:11:00;;;;;;;;;;;;;;;20.02;31.10;100153.38;4417125;32;19986;-50
2021/05/08 08:13:26;;;;;;;;;;;;;;;20.03;31.08;100149.88;4419084;32;20385;-54
2021/05/08 08:15:52;;;;;;;;;;;;;;;20.08;31.03;100148.19;4430859;32;19949;-53
2021/05/08 08:18:17;;;;;;;;;;;;;;;20.03;30.83;100152.50;4429328;32;19949;-54
2021/05/08 08:20:43;;;;;;;;;;;;;;;19.73;30.82;100151.28;4430133;32;20392;-50
2021/05/08 08:23:09;;;;;;;;;;;;;;;19.35;31.42;100145.56;4428676;32;19998;-56
2021/05/08 08:25:35;;;;;;;;;;;;;;;18.36;32.69;100141.44;4422817;32;20305;-58
2021/05/08 08:28:01;;;;;;;;;;;;;;;18.32;33.22;100147.47;4415128;32;19950;-56
2021/05/08 08:30:27;;;;;;;;;;;;;;;18.04;33.85;100153.19;4428808;32;19965;-55
2021/05/08 08:32:53;;;;;;;;;;;;;;;18.32;33.65;100139.56;4428029;32;19998;-57
2021/05/08 08:35:19;;;;;;;;;;;;;;;18.45;33.56;100136.28;4420673;32;20366;-56
2021/05/08 08:37:45;;;;;;;;;;;;;;;18.49;33.59;100140.75;4415452;32;20569;-53
2021/05/08 08:40:11;;;;;;;;;;;;;;;18.40;33.73;100135.34;4418933;32;19946;-56
2021/05/08 08:42:37;;;;;;;;;;;;;;;18.33;34.00;100136.06;4422308;32;19976;-55
2021/05/08 08:45:02;;;;;;;;;;;;;;;18.24;34.28;100129.81;4417977;32;20582;-54
2021/05/08 08:47:29;;;;;;;;;;;;;;;18.01;34.65;100126.72;4417262;32;19958;-57
2021/05/08 08:49:55;;;;;;;;;;;;;;;18.02;34.67;100132.88;4420920;32;19984;-57
2021/05/08 08:52:21;;;;;;;;;;;;;;;17.95;34.87;100126.62;4423111;32;19970;-56
2021/05/08 08:54:47;;;;;;;;;;;;;;;17.96;34.99;100131.03;4418178;32;19972;-54
2021/05/08 08:57:13;;;;;;;;;;;;;;;18.02;35.21;100122.34;4419686;32;20045;-54
2021/05/08 08:59:39;;;;;;;;;;;;;;;17.82;35.32;100120.22;4416639;32;20721;-54
2021/05/08 09:02:05;;;;;;;;;;;;;;;17.72;35.51;100128.78;4410055;32;19994;-57
2021/05/08 09:04:31;;;;;;;;;;;;;;;18.24;34.53;100114.00;4419774;32;19942;-56
2021/05/08 09:06:57;;;;;;;;;;;;;;;18.26;34.47;100114.00;4428045;32;20018;-57
2021/05/08 09:09:23;;;;;;;;;;;;;;;17.82;35.33;100109.69;4419708;32;19950;-57
2021/05/08 09:11:50;;;;;;;;;;;;;;;17.42;35.85;100113.31;4426803;32;20841;-56
2021/05/08 09:14:16;;;;;;;;;;;;;;;17.61;35.39;100105.81;4420505;32;19962;-56
2021/05/08 09:16:42;;;;;;;;;;;;;;;17.48;35.37;100114.31;4412800;32;19987;-57
2021/05/08 09:19:08;;;;;;;;;;;;;;;17.61;35.36;100108.44;4420529;32;20009;-56
2021/05/08 09:21:34;;;;;;;;;;;;;;;17.84;35.11;100105.31;4423594;32;19969;-56
2021/05/08 09:24:00;;;;;;;;;;;;;;;17.68;35.52;100094.50;4425350;32;19993;-57
2021/05/08 09:26:26;;;;;;;;;;;;;;;17.83;35.13;100106.19;4423093;32;20017;-52
2021/05/08 09:28:52;;;;;;;;;;;;;;;17.74;35.42;100098.13;4426863;32;19958;-55
2021/05/08 09:31:18;;;;;;;;;;;;;;;17.62;35.84;100097.03;4421707;32;20062;-55
2021/05/08 09:33:44;;;;;;;;;;;;;;;17.54;35.66;100102.16;4426528;32;19987;-57
2021/05/08 09:36:13;;;;;;;;;;;;;;;17.91;35.05;100099.31;4425860;32;20329;-58
2021/05/08 09:38:39;;;;;;;;;;;;;;;17.98;34.91;100100.31;4422823;32;19970;-57
2021/05/08 09:41:04;;;;;;;;;;;;;;;17.91;34.90;100091.41;4423498;32;20017;-57
2021/05/08 09:43:30;;;;;;;;;;;;;;;18.09;34.70;100085.63;4429310;32;19957;-56
2021/05/08 09:45:57;;;;;;;;;;;;;;;18.46;33.87;100092.34;4426038;32;19954;-57
2021/05/08 09:48:24;;;;;;;;;;;;;;;18.18;34.62;100087.50;4421233;32;19968;-56
2021/05/08 09:50:50;;;;;;;;;;;;;;;17.91;35.10;100080.87;4426867;32;20094;-57
2021/05/08 09:53:16;;;;;;;;;;;;;;;17.84;35.21;100073.72;4428234;32;19987;-57
2021/05/08 09:55:42;;;;;;;;;;;;;;;18.33;34.26;100070.16;4424958;32;19954;-56
2021/05/08 09:58:08;;;;;;;;;;;;;;;18.03;34.81;100072.34;4427992;32;19988;-56
2021/05/08 10:00:34;;;;;;;;;;;;;;;18.20;33.94;100066.47;4424166;32;19969;-56
2021/05/08 10:03:00;;;;;;;;;;;;;;;18.37;33.82;100058.84;4422694;32;21461;-54
2021/05/08 10:05:25;;;;;;;;;;;;;;;18.20;34.06;100043.63;4421194;32;19964;-55
2021/05/08 10:07:51;;;;;;;;;;;;;;;17.68;35.42;100049.75;4417952;32;20301;-54
2021/05/08 10:10:19;;;;;;;;;;;;;;;16.88;36.56;100042.88;4421104;32;19946;-56
2021/05/08 10:12:44;;;;;;;;;;;;;;;16.91;37.11;100048.19;4423765;32;19954;-56
2021/05/08 10:15:10;;;;;;;;;;;;;;;16.97;37.05;100043.03;4421487;32;20026;-54
2021/05/08 10:17:37;;;;;;;;;;;;;;;17.18;36.77;100041.75;4426962;32;19967;-54
2021/05/08 10:20:02;;;;;;;;;;;;;;;17.05;35.69;100030.97;4417327;32;19957;-52
2021/05/08 10:22:29;;;;;;;;;;;;;;;17.01;35.65;100023.87;4426965;32;19988;-58
2021/05/08 10:24:54;;;;;;;;;;;;;;;16.87;36.27;100026.19;4427854;32;20001;-55
2021/05/08 10:27:20;;;;;;;;;;;;;;;16.78;36.63;100021.62;4421571;32;19957;-53
2021/05/08 10:29:47;;;;;;;;;;;;;;;17.30;35.80;100015.69;4419750;32;19949;-50
2021/05/08 10:32:12;;;;;;;;;;;;;;;17.25;35.47;100014.72;4427194;32;20035;-52
2021/05/08 10:34:39;;;;;;;;;;;;;;;17.44;35.34;100012.41;4419753;32;19997;-51
2021/05/08 10:37:04;;;;;;;;;;;;;;;17.93;34.51;100010.66;4420324;32;19957;-56
2021/05/08 10:39:30;;;;;;;;;;;;;;;17.76;34.97;100010.37;4424148;32;20381;-56
2021/05/08 10:41:56;;;;;;;;;;;;;;;17.39;34.50;100005.34;4425163;32;19957;-52
2021/05/08 10:44:22;;;;;;;;;;;;;;;17.62;34.52;100001.34;4424614;32;20029;-54
2021/05/08 10:46:48;;;;;;;;;;;;;;;17.41;33.67;99992.22;4421975;32;20278;-55
2021/05/08 10:49:14;;;;;;;;;;;;;;;17.52;34.30;99995.03;4421019;32;19958;-55
2021/05/08 10:51:40;;;;;;;;;;;;;;;17.52;33.78;99989.75;4426832;32;19997;-55
2021/05/08 10:54:06;;;;;;;;;;;;;;;17.62;34.13;100001.34;4425024;32;19976;-56
2021/05/08 10:56:32;;;;;;;;;;;;;;;17.04;34.34;99992.38;4421307;32;20465;-56
2021/05/08 10:58:58;;;;;;;;;;;;;;;17.55;34.25;99989.81;4413302;32;20280;-55
2021/05/08 11:01:23;;;;;;;;;;;;;;;17.23;34.09;99988.34;4422144;32;19997;-56
2021/05/08 11:03:49;;;;;;;;;;;;;;;16.96;34.91;99993.91;4426574;32;19981;-48
2021/05/08 11:06:15;;;;;;;;;;;;;;;17.19;34.55;99975.12;4416490;32;19972;-51
2021/05/08 11:08:41;;;;;;;;;;;;;;;17.97;33.59;99969.44;4416368;32;19965;-52
2021/05/08 11:11:07;;;;;;;;;;;;;;;18.43;33.08;99969.28;4425409;32;20319;-53
2021/05/08 11:13:33;;;;;;;;;;;;;;;18.71;33.21;99961.75;4423239;32;19946;-50
2021/05/08 11:16:05;;;;;;;;;;;;;;;18.88;32.85;99954.00;4424664;32;19957;-53
2021/05/08 11:18:34;;;;;;;;;;;;;;;19.05;32.88;99946.31;4415834;32;20008;-51
2021/05/08 11:21:00;;;;;;;;;;;;;;;19.21;32.56;99946.50;4417418;32;20026;-52
2021/05/08 11:23:26;;;;;;;;;;;;;;;19.37;32.24;99950.16;4421034;32;20810;-47
2021/05/08 11:25:52;;;;;;;;;;;;;;;19.52;31.98;99941.50;4423148;32;19976;-49
2021/05/08 11:28:18;;;;;;;;;;;;;;;19.61;31.82;99936.31;4422174;32;20024;-51
2021/05/08 11:30:44;;;;;;;;;;;;;;;19.67;31.84;99939.00;4422505;32;19977;-47
2021/05/08 11:33:10;;;;;;;;;;;;;;;19.83;31.33;99936.50;4422963;32;20001;-51
2021/05/08 11:35:36;;;;;;;;;;;;;;;19.91;31.21;99931.28;4422516;32;19976;-50
2021/05/08 11:38:02;;;;;;;;;;;;;;;19.97;31.16;99923.41;4423134;32;19990;-48
2021/05/08 11:40:28;;;;;;;;;;;;;;;20.03;30.73;99917.28;4421670;32;19954;-48
2021/05/08 11:42:54;;;;;;;;;;;;;;;20.11;30.67;99905.00;4423175;32;19990;-52
2021/05/08 11:45:20;;;;;;;;;;;;;;;20.15;30.23;99919.13;4423015;32;20403;-52
2021/05/08 11:47:46;;;;;;;;;;;;;;;20.20;29.94;99914.72;4422835;32;19956;-51
2021/05/08 11:50:13;;;;;;;;;;;;;;;20.25;30.19;99912.13;4421951;32;19938;-49
2021/05/08 11:52:39;;;;;;;;;;;;;;;20.25;30.22;99896.25;4423846;32;19965;-52
2021/05/08 11:55:05;;;;;;;;;;;;;;;20.28;29.74;99896.25;4424509;32;19938;-52
2021/05/08 11:57:31;;;;;;;;;;;;;;;20.31;29.63;99896.28;4420204;32;19966;-52
2021/05/08 11:59:57;;;;;;;;;;;;;;;20.34;29.72;99891.03;4429862;32;19958;-49
2021/05/08 12:02:23;;;;;;;;;;;;;;;20.40;29.06;99888.41;4425655;32;19954;-49
2021/05/08 12:04:49;;;;;;;;;;;;;;;20.37;29.13;99891.03;4424362;32;20956;-51
2021/05/08 12:07:15;;;;;;;;;;;;;;;20.37;29.59;99891.03;4421335;32;19986;-52
2021/05/08 12:09:41;;;;;;;;;;;;;;;20.36;29.23;99884.84;4421795;32;20054;-47
2021/05/08 12:12:07;;;;;;;;;;;;;;;20.39;29.18;99883.97;4424856;32;19942;-51
2021/05/08 12:14:33;;;;;;;;;;;;;;;20.46;29.63;99875.22;4416296;32;19947;-51
2021/05/08 12:16:59;;;;;;;;;;;;;;;20.47;29.32;99882.25;4424618;32;19997;-49
2021/05/08 12:19:25;;;;;;;;;;;;;;;20.53;29.27;99867.28;4425863;32;19942;-58
2021/05/08 12:21:51;;;;;;;;;;;;;;;19.19;28.66;99869.03;4428820;32;19985;-60
2021/05/08 12:24:16;;;;;;;;;;;;;;;18.57;30.40;99864.00;4418434;32;19998;-59
2021/05/08 12:26:42;;;;;;;;;;;;;;;18.73;29.45;99865.06;4422303;32;19978;-60
2021/05/08 12:29:08;;;;;;;;;;;;;;;18.41;29.96;99862.91;4424322;32;19946;-59
2021/05/08 12:31:34;;;;;;;;;;;;;;;18.12;30.97;99860.78;4422741;32;19986;-59